createdAt,value
2023-05-19T00:01:00.366Z,98237.69
2023-05-19T00:03:27.565Z,98230.81
2023-05-19T00:05:54.496Z,98225.78
2023-05-19T00:08:24.650Z,98221.84
2023-05-19T00:10:51.602Z,98226.03
2023-05-19T00:13:18.631Z,98212.06
2023-05-19T00:15:45.534Z,98216.00
2023-05-19T00:18:14.224Z,98217.91
2023-05-19T00:20:41.376Z,98222.50
2023-05-19T00:23:08.400Z,98220.00
2023-05-19T00:25:35.049Z,98227.50
2023-05-19T00:28:02.516Z,98215.84
2023-05-19T00:30:32.284Z,98226.88
2023-05-19T00:32:59.169Z,98234.81
2023-05-19T00:35:26.117Z,98244.22
2023-05-19T00:37:52.843Z,98227.53
2023-05-19T00:40:19.654Z,98230.66
2023-05-19T00:42:46.212Z,98234.84
2023-05-19T00:45:12.874Z,98216.69
2023-05-19T00:47:39.759Z,98224.59
2023-05-19T00:50:06.758Z,98221.66
2023-05-19T00:52:33.516Z,98221.47
2023-05-19T00:55:00.246Z,98216.03
2023-05-19T00:57:27.700Z,98211.03
2023-05-19T00:59:54.406Z,98214.38
2023-05-19T01:02:21.591Z,98207.06
2023-05-19T01:04:49.939Z,98208.75
2023-05-19T01:07:16.659Z,98204.97
2023-05-19T01:09:43.626Z,98206.44
2023-05-19T01:12:10.663Z,98207.47
2023-05-19T01:14:37.328Z,98198.31
2023-05-19T01:17:24.414Z,98216.25
2023-05-19T01:20:02.271Z,98207.28
2023-05-19T01:23:07.287Z,98205.19
2023-05-19T01:26:10.251Z,98198.03
2023-05-19T01:28:54.802Z,98196.16
2023-05-19T01:31:26.099Z,98180.72
2023-05-19T01:33:54.286Z,98191.97
2023-05-19T01:36:23.161Z,98178.03
2023-05-19T01:38:52.395Z,98201.22
2023-05-19T01:41:21.095Z,98199.97
2023-05-19T01:43:49.216Z,98194.16
2023-05-19T01:46:16.332Z,98207.50
2023-05-19T01:48:45.010Z,98214.16
2023-05-19T01:51:11.759Z,98215.59
2023-05-19T01:53:38.440Z,98219.16
2023-05-19T01:56:06.427Z,98219.53
2023-05-19T01:58:44.776Z,98217.88
2023-05-19T02:01:25.457Z,98225.81
2023-05-19T02:04:10.899Z,98225.78
2023-05-19T02:06:40.370Z,98234.53
2023-05-19T02:09:26.966Z,98232.66
2023-05-19T02:12:06.205Z,98241.41
2023-05-19T02:14:41.877Z,98248.06
2023-05-19T02:17:09.247Z,98253.88
2023-05-19T02:19:39.146Z,98254.06
2023-05-19T02:22:06.470Z,98274.09
2023-05-19T02:24:33.182Z,98273.22
2023-05-19T02:26:59.961Z,98269.22
2023-05-19T02:29:26.724Z,98274.44
2023-05-19T02:31:53.449Z,98278.81
2023-05-19T02:34:21.038Z,98281.72
2023-05-19T02:36:49.951Z,98283.59
2023-05-19T02:39:16.872Z,98286.06
2023-05-19T02:41:43.512Z,98286.66
2023-05-19T02:44:10.248Z,98286.91
2023-05-19T02:46:36.878Z,98284.00
2023-05-19T02:49:03.632Z,98284.22
2023-05-19T02:51:30.553Z,98289.63
2023-05-19T02:53:57.234Z,98296.97
2023-05-19T02:56:23.850Z,98298.25
2023-05-19T02:58:50.812Z,98298.25
2023-05-19T03:01:17.492Z,98282.47
2023-05-19T03:03:44.201Z,98283.38
2023-05-19T03:06:12.614Z,98283.78
2023-05-19T03:08:40.882Z,98283.84
2023-05-19T03:11:09.091Z,98275.94
2023-05-19T03:13:35.778Z,98269.91
2023-05-19T03:16:03.560Z,98288.28
2023-05-19T03:18:30.683Z,98280.97
2023-05-19T03:20:57.342Z,98285.56
2023-05-19T03:23:23.977Z,98289.31
2023-05-19T03:25:50.972Z,98291.41
2023-05-19T03:28:17.633Z,98291.81
2023-05-19T03:30:44.560Z,98296.84
2023-05-19T03:33:11.749Z,98285.97
2023-05-19T03:35:38.640Z,98290.16
2023-05-19T03:38:05.450Z,98278.69
2023-05-19T03:40:32.214Z,98290.97
2023-05-19T03:43:01.054Z,98287.84
2023-05-19T03:45:28.379Z,98290.34
2023-05-19T03:47:55.140Z,98298.06
2023-05-19T03:50:22.888Z,98285.53
2023-05-19T03:52:49.567Z,98307.44
2023-05-19T03:55:16.425Z,98297.63
2023-05-19T03:57:44.460Z,98281.75
2023-05-19T04:00:12.367Z,98292.22
2023-05-19T04:02:39.403Z,98294.69
2023-05-19T04:05:07.230Z,98302.00
2023-05-19T04:07:34.061Z,98298.03
2023-05-19T04:10:00.774Z,98296.91
2023-05-19T04:12:27.400Z,98294.00
2023-05-19T04:14:54.068Z,98296.72
2023-05-19T04:17:20.766Z,98299.22
2023-05-19T04:19:47.424Z,98310.06
2023-05-19T04:22:14.219Z,98305.66
2023-05-19T04:24:41.002Z,98311.47
2023-05-19T04:27:11.911Z,98320.41
2023-05-19T04:29:40.126Z,98316.91
2023-05-19T04:32:07.894Z,98317.50
2023-05-19T04:34:35.734Z,98325.66
2023-05-19T04:37:02.798Z,98330.84
2023-05-19T04:39:29.407Z,98326.22
2023-05-19T04:41:56.734Z,98330.41
2023-05-19T04:44:23.422Z,98331.06
2023-05-19T04:46:54.342Z,98334.91
2023-05-19T04:49:21.281Z,98336.34
2023-05-19T04:51:51.073Z,98340.84
2023-05-19T04:54:18.564Z,98330.91
2023-05-19T04:56:45.293Z,98337.91
2023-05-19T04:59:12.096Z,98346.09
2023-05-19T05:01:40.461Z,98349.28
2023-05-19T05:04:07.324Z,98349.22
2023-05-19T05:06:33.999Z,98349.50
2023-05-19T05:09:00.749Z,98361.13
2023-05-19T05:11:27.719Z,98354.16
2023-05-19T05:13:58.079Z,98359.09
2023-05-19T05:16:25.428Z,98359.19
2023-05-19T05:18:52.414Z,98374.13
2023-05-19T05:21:19.379Z,98373.41
2023-05-19T05:23:46.255Z,98382.75
2023-05-19T05:26:19.028Z,98381.03
2023-05-19T05:28:45.951Z,98391.47
2023-05-19T05:31:12.632Z,98383.72
2023-05-19T05:33:39.496Z,98380.94
2023-05-19T05:36:06.589Z,98391.19
2023-05-19T05:38:33.633Z,98403.03
2023-05-19T05:41:02.145Z,98411.28
2023-05-19T05:43:29.818Z,98413.41
2023-05-19T05:45:59.417Z,98404.25
2023-05-19T05:48:26.546Z,98416.97
2023-05-19T05:50:54.581Z,98430.78
2023-05-19T05:53:21.728Z,98431.84
2023-05-19T05:55:48.938Z,98424.03
2023-05-19T05:58:17.022Z,98426.13
2023-05-19T06:00:43.877Z,98441.72
2023-05-19T06:03:11.358Z,98426.72
2023-05-19T06:05:38.683Z,98438.47
2023-05-19T06:08:05.765Z,98449.19
2023-05-19T06:10:33.277Z,98437.13
2023-05-19T06:13:00.258Z,98438.06
2023-05-19T06:15:26.864Z,98448.47
2023-05-19T06:17:54.780Z,98456.53
2023-05-19T06:20:22.005Z,98459.53
2023-05-19T06:22:48.675Z,98454.84
2023-05-19T06:25:15.302Z,98459.81
2023-05-19T06:27:42.043Z,98454.38
2023-05-19T06:30:09.301Z,98452.63
2023-05-19T06:32:35.970Z,98453.38
2023-05-19T06:35:02.684Z,98451.16
2023-05-19T06:37:29.323Z,98466.38
2023-05-19T06:39:56.033Z,98464.59
2023-05-19T06:42:23.099Z,98469.91
2023-05-19T06:44:50.620Z,98460.25
2023-05-19T06:47:17.688Z,98463.59
2023-05-19T06:49:51.673Z,98464.16
2023-05-19T06:52:18.402Z,98464.88
2023-05-19T06:54:45.082Z,98462.78
2023-05-19T06:57:11.780Z,98479.38
2023-05-19T06:59:40.870Z,98471.69
2023-05-19T07:02:08.599Z,98471.38
2023-05-19T07:04:36.369Z,98478.97
2023-05-19T07:07:03.216Z,98475.25
2023-05-19T07:09:29.867Z,98477.03
2023-05-19T07:11:56.631Z,98487.66
2023-05-19T07:14:23.408Z,98480.13
2023-05-19T07:16:50.149Z,98490.59
2023-05-19T07:19:19.397Z,98495.28
2023-05-19T07:21:47.744Z,98469.22
2023-05-19T07:24:14.368Z,98479.50
2023-05-19T07:26:42.627Z,98493.13
2023-05-19T07:29:09.214Z,98480.28
2023-05-19T07:31:35.852Z,98476.50
2023-05-19T07:34:03.051Z,98483.06
2023-05-19T07:36:29.779Z,98483.59
2023-05-19T07:38:56.586Z,98478.59
2023-05-19T07:41:23.293Z,98487.41
2023-05-19T07:43:50.088Z,98484.63
2023-05-19T07:46:16.819Z,98485.81
2023-05-19T07:48:43.707Z,98483.75
2023-05-19T07:51:12.762Z,98482.09
2023-05-19T07:53:39.505Z,98486.31
2023-05-19T07:56:06.631Z,98500.44
2023-05-19T07:58:33.397Z,98495.69
2023-05-19T08:01:00.527Z,98499.47
2023-05-19T08:03:27.543Z,98506.06
2023-05-19T08:05:54.515Z,98497.97
2023-05-19T08:08:22.004Z,98492.34
2023-05-19T08:10:48.756Z,98521.72
2023-05-19T08:13:15.526Z,98502.31
2023-05-19T08:15:42.856Z,98506.28
2023-05-19T08:18:09.774Z,98514.31
2023-05-19T08:20:36.790Z,98522.53
2023-05-19T08:23:03.716Z,98493.94
2023-05-19T08:25:30.403Z,98507.94
2023-05-19T08:27:57.184Z,98512.91
2023-05-19T08:30:24.336Z,98498.97
2023-05-19T08:32:51.224Z,98506.13
2023-05-19T08:35:18.112Z,98505.34
2023-05-19T08:37:44.725Z,98505.72
2023-05-19T08:40:17.076Z,98509.25
2023-05-19T08:42:44.850Z,98510.28
2023-05-19T08:45:11.938Z,98507.28
2023-05-19T08:47:39.686Z,98520.19
2023-05-19T08:50:07.961Z,98504.28
2023-05-19T08:52:57.843Z,98508.28
2023-05-19T08:55:53.377Z,98513.34
2023-05-19T08:58:22.040Z,98514.88
2023-05-19T09:00:49.507Z,98517.78
2023-05-19T09:03:23.417Z,98529.44
2023-05-19T09:05:51.327Z,98534.91
2023-05-19T09:08:18.514Z,98539.00
2023-05-19T09:10:45.257Z,98526.34
2023-05-19T09:13:12.027Z,98530.75
2023-05-19T09:15:40.005Z,98541.94
2023-05-19T09:18:11.855Z,98539.03
2023-05-19T09:20:46.065Z,98547.31
2023-05-19T09:23:15.024Z,98536.31
2023-05-19T09:25:52.508Z,98531.59
2023-05-19T09:28:36.430Z,98534.38
2023-05-19T09:31:08.322Z,98535.53
2023-05-19T09:33:36.756Z,98536.72
2023-05-19T09:36:08.663Z,98527.81
2023-05-19T09:38:36.419Z,98545.50
2023-05-19T09:41:04.106Z,98558.13
2023-05-19T09:43:33.409Z,98544.38
2023-05-19T09:46:01.628Z,98533.91
2023-05-19T09:48:28.445Z,98530.66
2023-05-19T09:50:55.325Z,98533.72
2023-05-19T09:53:22.718Z,98543.72
2023-05-19T09:55:50.054Z,98538.78
2023-05-19T09:58:20.596Z,98551.75
2023-05-19T10:00:48.255Z,98548.44
2023-05-19T10:03:16.575Z,98541.50
2023-05-19T10:05:43.961Z,98535.22
2023-05-19T10:08:11.980Z,98545.09
2023-05-19T10:10:39.058Z,98554.78
2023-05-19T10:13:06.359Z,98535.19
2023-05-19T10:15:40.884Z,98541.50
2023-05-19T10:18:17.715Z,98548.13
2023-05-19T10:20:44.867Z,98536.81
2023-05-19T10:23:11.547Z,98522.16
2023-05-19T10:25:39.506Z,98518.06
2023-05-19T10:28:11.938Z,98525.22
2023-05-19T10:30:43.258Z,98523.56
2023-05-19T10:33:14.783Z,98525.50
2023-05-19T10:36:11.739Z,98524.97
2023-05-19T10:38:56.788Z,98527.13
2023-05-19T10:41:29.381Z,98522.34
2023-05-19T10:44:19.312Z,98518.22
2023-05-19T10:46:46.117Z,98520.25
2023-05-19T10:49:21.789Z,98518.63
2023-05-19T10:51:48.965Z,98521.19
2023-05-19T10:54:17.404Z,98509.22
2023-05-19T10:56:47.536Z,98506.66
2023-05-19T10:59:39.755Z,98502.56
2023-05-19T11:02:08.392Z,98505.03
2023-05-19T11:04:53.682Z,98501.97
2023-05-19T11:07:21.736Z,98501.41
2023-05-19T11:09:54.557Z,98497.31
2023-05-19T11:12:25.372Z,98497.59
2023-05-19T11:14:55.876Z,98496.47
2023-05-19T11:17:25.176Z,98493.09
2023-05-19T11:19:57.166Z,98503.84
2023-05-19T11:22:28.153Z,98506.38
2023-05-19T11:24:55.738Z,98494.59
2023-05-19T11:27:32.805Z,98493.38
2023-05-19T11:30:02.320Z,98491.47
2023-05-19T11:32:30.655Z,98483.84
2023-05-19T11:34:58.027Z,98481.28
2023-05-19T11:37:25.058Z,98485.13
2023-05-19T11:39:52.289Z,98485.56
2023-05-19T11:42:19.377Z,98475.94
2023-05-19T11:44:46.750Z,98476.16
2023-05-19T11:47:14.749Z,98471.72
2023-05-19T11:49:57.669Z,98475.34
2023-05-19T11:52:25.364Z,98467.41
2023-05-19T11:54:52.475Z,98472.06
2023-05-19T11:57:19.694Z,98466.69
2023-05-19T11:59:48.304Z,98473.19
2023-05-19T12:02:25.900Z,98482.88
2023-05-19T12:04:53.059Z,98488.25
2023-05-19T12:07:24.113Z,98487.53
2023-05-19T12:09:52.133Z,98491.88
2023-05-19T12:12:22.697Z,98509.31
2023-05-19T12:14:51.388Z,98491.81
2023-05-19T12:17:20.081Z,98495.47
2023-05-19T12:19:50.353Z,98495.00
2023-05-19T12:22:17.895Z,98500.22
2023-05-19T12:24:46.371Z,98495.38
2023-05-19T12:27:18.186Z,98503.31
2023-05-19T12:29:53.785Z,98498.56
2023-05-19T12:32:27.874Z,98511.88
2023-05-19T12:34:57.686Z,98540.56
2023-05-19T12:37:30.134Z,98551.16
2023-05-19T12:39:57.459Z,98561.19
2023-05-19T12:42:31.046Z,98549.28
2023-05-19T12:45:00.614Z,98563.00
2023-05-19T12:47:35.315Z,98561.75
2023-05-19T12:50:04.933Z,98562.56
2023-05-19T12:52:35.342Z,98580.44
2023-05-19T12:55:07.164Z,98578.94
2023-05-19T12:57:38.359Z,98581.34
2023-05-19T13:00:32.830Z,98586.09
2023-05-19T13:03:07.533Z,98605.84
2023-05-19T13:05:37.923Z,98589.84
2023-05-19T13:08:09.363Z,98584.56
2023-05-19T13:10:37.903Z,98591.84
2023-05-19T13:13:05.282Z,98592.75
2023-05-19T13:15:36.453Z,98593.72
2023-05-19T13:18:06.258Z,98592.13
2023-05-19T13:20:33.729Z,98597.00
2023-05-19T13:23:00.907Z,98595.31
2023-05-19T13:25:28.128Z,98606.34
2023-05-19T13:27:55.152Z,98605.47
2023-05-19T13:30:22.170Z,98602.75
2023-05-19T13:32:48.823Z,98617.25
2023-05-19T13:35:15.944Z,98606.03
2023-05-19T13:37:42.854Z,98615.50
2023-05-19T13:40:10.000Z,98613.75
2023-05-19T13:42:36.934Z,98611.41
2023-05-19T13:45:04.192Z,98612.78
2023-05-19T13:47:30.949Z,98609.59
2023-05-19T13:49:57.756Z,98613.88
2023-05-19T13:52:24.613Z,98611.88
2023-05-19T13:54:51.357Z,98609.75
2023-05-19T13:57:17.976Z,98620.53
2023-05-19T14:00:00.244Z,98618.88
2023-05-19T14:02:29.922Z,98619.84
2023-05-19T14:04:57.012Z,98610.47
2023-05-19T14:07:23.804Z,98591.53
2023-05-19T14:09:51.251Z,98593.63
2023-05-19T14:12:18.101Z,98588.97
2023-05-19T14:14:45.125Z,98588.63
2023-05-19T14:17:12.138Z,98589.66
2023-05-19T14:19:38.988Z,98576.66
2023-05-19T14:22:06.008Z,98576.84
2023-05-19T14:24:32.772Z,98562.72
2023-05-19T14:26:59.361Z,98577.47
2023-05-19T14:29:28.446Z,98577.03
2023-05-19T14:31:55.129Z,98574.84
2023-05-19T14:34:21.852Z,98562.03
2023-05-19T14:36:49.053Z,98561.88
2023-05-19T14:39:15.776Z,98566.00
2023-05-19T14:41:42.477Z,98564.78
2023-05-19T14:44:09.178Z,98563.81
2023-05-19T14:46:36.269Z,98570.13
2023-05-19T14:49:03.560Z,98542.09
2023-05-19T14:51:30.264Z,98545.94
2023-05-19T14:53:56.915Z,98529.56
2023-05-19T14:56:23.669Z,98533.97
2023-05-19T14:58:50.330Z,98539.38
2023-05-19T15:01:17.007Z,98529.75
2023-05-19T15:03:43.746Z,98554.63
2023-05-19T15:06:11.227Z,98549.81
2023-05-19T15:08:38.052Z,98548.69
2023-05-19T15:11:05.046Z,98542.97
2023-05-19T15:13:31.699Z,98547.09
2023-05-19T15:16:12.521Z,98532.88
2023-05-19T15:18:43.596Z,98551.81
2023-05-19T15:21:10.432Z,98542.94
2023-05-19T15:23:37.121Z,98535.41
2023-05-19T15:26:03.925Z,98542.09
2023-05-19T15:28:30.545Z,98548.91
2023-05-19T15:30:57.144Z,98539.72
2023-05-19T15:33:23.826Z,98537.03
2023-05-19T15:35:52.165Z,98537.47
2023-05-19T15:38:21.907Z,98535.59
2023-05-19T15:40:48.556Z,98532.91
2023-05-19T15:43:15.234Z,98554.03
2023-05-19T15:45:41.955Z,98548.72
2023-05-19T15:48:08.789Z,98539.66
2023-05-19T15:50:36.136Z,98544.38
2023-05-19T15:53:03.485Z,98543.72
2023-05-19T15:55:30.490Z,98535.72
2023-05-19T15:57:57.197Z,98548.66
2023-05-19T16:00:23.862Z,98547.44
2023-05-19T16:02:50.711Z,98548.50
2023-05-19T16:05:17.854Z,98550.97
2023-05-19T16:07:45.116Z,98544.53
2023-05-19T16:10:11.893Z,98556.81
2023-05-19T16:12:38.503Z,98553.47
2023-05-19T16:15:05.855Z,98560.72
2023-05-19T16:17:32.654Z,98554.03
2023-05-19T16:19:59.334Z,98560.34
2023-05-19T16:22:26.165Z,98550.28
2023-05-19T16:24:53.121Z,98547.78
2023-05-19T16:27:19.842Z,98558.53
2023-05-19T16:29:46.579Z,98552.63
2023-05-19T16:32:13.502Z,98550.16
2023-05-19T16:34:40.249Z,98547.50
2023-05-19T16:37:07.000Z,98550.66
2023-05-19T16:39:36.054Z,98563.41
2023-05-19T16:42:03.688Z,98554.03
2023-05-19T16:44:30.473Z,98556.16
2023-05-19T16:46:57.243Z,98554.75
2023-05-19T16:49:23.942Z,98557.88
2023-05-19T16:51:52.895Z,98555.38
2023-05-19T16:54:19.800Z,98549.38
2023-05-19T16:56:46.515Z,98571.97
2023-05-19T16:59:13.195Z,98570.06
2023-05-19T17:01:39.990Z,98565.00
2023-05-19T17:04:06.690Z,98562.28
2023-05-19T17:06:33.332Z,98565.44
2023-05-19T17:09:00.035Z,98566.06
2023-05-19T17:11:27.592Z,98555.13
2023-05-19T17:13:54.282Z,98567.31
2023-05-19T17:16:21.407Z,98574.47
2023-05-19T17:18:48.188Z,98573.34
2023-05-19T17:21:15.233Z,98575.63
2023-05-19T17:23:42.037Z,98580.25
2023-05-19T17:26:08.929Z,98579.22
2023-05-19T17:28:35.764Z,98584.44
2023-05-19T17:31:09.539Z,98575.16
2023-05-19T17:33:36.261Z,98585.63
2023-05-19T17:36:04.271Z,98585.81
2023-05-19T17:38:32.302Z,98582.56
2023-05-19T17:40:59.757Z,98583.66
2023-05-19T17:43:26.806Z,98581.25
2023-05-19T17:45:53.908Z,98586.22
2023-05-19T17:48:20.949Z,98594.72
2023-05-19T17:50:48.178Z,98593.59
2023-05-19T17:53:16.138Z,98590.66
2023-05-19T17:55:49.967Z,98605.53
2023-05-19T17:58:17.954Z,98595.84
2023-05-19T18:00:45.254Z,98601.06
2023-05-19T18:03:12.329Z,98594.75
2023-05-19T18:05:40.200Z,98602.72
2023-05-19T18:08:09.426Z,98601.22
2023-05-19T18:10:38.065Z,98600.81
2023-05-19T18:13:05.886Z,98607.28
2023-05-19T18:15:32.925Z,98600.59
2023-05-19T18:17:59.949Z,98597.28
2023-05-19T18:20:27.068Z,98605.00
2023-05-19T18:22:53.741Z,98607.53
2023-05-19T18:25:20.920Z,98602.75
2023-05-19T18:27:47.650Z,98597.66
2023-05-19T18:30:14.534Z,98596.91
2023-05-19T18:32:41.541Z,98605.53
2023-05-19T18:35:09.335Z,98600.81
2023-05-19T18:37:36.058Z,98604.22
2023-05-19T18:40:02.700Z,98599.81
2023-05-19T18:42:29.576Z,98600.47
2023-05-19T18:44:56.193Z,98596.56
2023-05-19T18:47:25.805Z,98601.47
2023-05-19T18:49:52.430Z,98598.53
2023-05-19T18:52:19.928Z,98607.38
2023-05-19T18:54:47.175Z,98613.25
2023-05-19T18:57:16.809Z,98608.47
2023-05-19T18:59:43.381Z,98616.03
2023-05-19T19:02:10.186Z,98619.94
2023-05-19T19:04:36.822Z,98615.81
2023-05-19T19:07:05.592Z,98613.34
2023-05-19T19:09:32.163Z,98610.63
2023-05-19T19:11:58.752Z,98610.19
2023-05-19T19:14:25.374Z,98609.72
2023-05-19T19:16:52.044Z,98609.28
2023-05-19T19:19:18.853Z,98608.69
2023-05-19T19:21:45.618Z,98618.28
2023-05-19T19:24:13.700Z,98607.19
2023-05-19T19:26:40.464Z,98616.22
2023-05-19T19:29:07.167Z,98626.28
2023-05-19T19:31:33.854Z,98622.72
2023-05-19T19:34:03.722Z,98629.41
2023-05-19T19:36:30.424Z,98629.00
2023-05-19T19:38:57.098Z,98620.38
2023-05-19T19:41:25.073Z,98627.72
2023-05-19T19:43:51.974Z,98630.44
2023-05-19T19:46:18.687Z,98632.19
2023-05-19T19:48:45.438Z,98640.13
2023-05-19T19:51:12.125Z,98630.09
2023-05-19T19:53:38.845Z,98629.53
2023-05-19T19:56:06.246Z,98621.78
2023-05-19T19:58:32.882Z,98626.34
2023-05-19T20:01:01.902Z,98627.59
2023-05-19T20:03:29.319Z,98619.66
2023-05-19T20:05:56.882Z,98615.50
2023-05-19T20:08:24.686Z,98613.16
2023-05-19T20:10:51.844Z,98617.13
2023-05-19T20:13:19.137Z,98623.19
2023-05-19T20:15:46.706Z,98624.66
2023-05-19T20:18:13.639Z,98616.22
2023-05-19T20:20:41.061Z,98623.59
2023-05-19T20:23:08.213Z,98616.91
2023-05-19T20:25:50.179Z,98616.03
2023-05-19T20:28:25.849Z,98635.31
2023-05-19T20:30:52.505Z,98623.59
2023-05-19T20:33:19.167Z,98614.53
2023-05-19T20:35:45.951Z,98622.53
2023-05-19T20:38:12.590Z,98627.59
2023-05-19T20:40:39.221Z,98621.69
2023-05-19T20:43:05.848Z,98622.13
2023-05-19T20:45:32.872Z,98622.13
2023-05-19T20:48:00.801Z,98626.34
2023-05-19T20:50:27.424Z,98623.59
2023-05-19T20:52:54.340Z,98613.75
2023-05-19T20:55:21.139Z,98614.97
2023-05-19T20:57:47.767Z,98612.06
2023-05-19T21:00:14.761Z,98609.97
2023-05-19T21:02:41.451Z,98605.75
2023-05-19T21:05:08.461Z,98608.69
2023-05-19T21:07:35.219Z,98604.41
2023-05-19T21:10:02.014Z,98601.28
2023-05-19T21:12:33.835Z,98605.03
2023-05-19T21:15:01.532Z,98599.78
2023-05-19T21:17:28.279Z,98607.38
2023-05-19T21:19:58.210Z,98604.63
2023-05-19T21:22:26.154Z,98599.78
2023-05-19T21:24:56.282Z,98608.88
2023-05-19T21:27:23.186Z,98608.22
2023-05-19T21:29:56.738Z,98607.78
2023-05-19T21:32:23.407Z,98609.91
2023-05-19T21:34:50.248Z,98613.09
2023-05-19T21:37:17.735Z,98603.88
2023-05-19T21:39:45.059Z,98613.34
2023-05-19T21:42:11.777Z,98599.53
2023-05-19T21:44:38.541Z,98608.94
2023-05-19T21:47:05.240Z,98607.72
2023-05-19T21:49:31.859Z,98604.19
2023-05-19T21:51:58.647Z,98609.84
2023-05-19T21:54:25.338Z,98611.97
2023-05-19T21:56:51.920Z,98619.13
2023-05-19T21:59:19.534Z,98609.91
2023-05-19T22:01:46.841Z,98614.72
2023-05-19T22:04:15.493Z,98609.94
2023-05-19T22:06:43.173Z,98614.94
2023-05-19T22:09:10.019Z,98611.19
2023-05-19T22:11:36.773Z,98612.84
2023-05-19T22:14:03.359Z,98605.94
2023-05-19T22:16:31.167Z,98594.81
2023-05-19T22:18:58.200Z,98580.00
2023-05-19T22:21:25.460Z,98588.38
2023-05-19T22:23:52.373Z,98579.34
2023-05-19T22:26:19.141Z,98573.97
2023-05-19T22:28:45.744Z,98584.63
2023-05-19T22:31:12.490Z,98575.66
2023-05-19T22:33:39.072Z,98574.19
2023-05-19T22:36:05.949Z,98570.44
2023-05-19T22:38:32.691Z,98568.75
2023-05-19T22:40:59.360Z,98578.41
2023-05-19T22:43:26.094Z,98574.19
2023-05-19T22:45:52.784Z,98569.09
2023-05-19T22:48:19.515Z,98575.63
2023-05-19T22:50:46.512Z,98568.09
2023-05-19T22:53:13.191Z,98574.41
2023-05-19T22:55:39.995Z,98567.47
2023-05-19T22:58:06.652Z,98570.44
2023-05-19T23:00:33.555Z,98554.50
2023-05-19T23:03:00.279Z,98567.72
2023-05-19T23:05:27.075Z,98559.53
2023-05-19T23:07:53.790Z,98552.81
2023-05-19T23:10:20.427Z,98540.66
2023-05-19T23:12:47.012Z,98540.84
2023-05-19T23:15:13.690Z,98541.84
2023-05-19T23:17:40.593Z,98538.97
2023-05-19T23:20:07.879Z,98536.63
2023-05-19T23:22:34.627Z,98539.75
2023-05-19T23:25:05.635Z,98538.47
2023-05-19T23:27:32.263Z,98536.78
2023-05-19T23:29:58.877Z,98532.56
2023-05-19T23:32:25.739Z,98520.81
2023-05-19T23:34:52.402Z,98516.22
2023-05-19T23:37:19.049Z,98519.78
2023-05-19T23:39:45.780Z,98506.94
2023-05-19T23:42:13.211Z,98512.41
2023-05-19T23:44:39.791Z,98510.75
2023-05-19T23:47:06.853Z,98512.84
2023-05-19T23:49:33.704Z,98505.75
2023-05-19T23:52:00.415Z,98508.88
2023-05-19T23:54:27.127Z,98514.06
2023-05-19T23:56:55.770Z,98519.72
2023-05-19T23:59:22.552Z,98512.34
